Time;durP1;ratioP1;P1;durP2;ratioP2;P2;SDS_P1;SDS_P2;PMS_P1;PMS_P2;Temp;Humidity;BMP_temperature;BMP_pressure;BME280_temperature;BME280_humidity;BME280_pressure;Samples;Min_cycle;Max_cycle;Signal;HPM_P1;HPM_P2
2021/07/06 00:02:09;;;;;;;1.60;1.02;;;;;;;20.38;73.90;99501.34;10452973;28;20412;-59
2021/07/06 00:07:11;;;;;;;4.35;1.23;;;;;;;20.30;74.44;99491.56;10452399;28;20560;-59
2021/07/06 00:12:14;;;;;;;2.35;1.35;;;;;;;20.26;74.35;99492.19;10452060;28;20240;-59
2021/07/06 00:17:15;;;;;;;1.85;1.23;;;;;;;20.21;74.32;99483.88;10459397;28;20090;-63
2021/07/06 00:22:17;;;;;;;1.08;0.90;;;;;;;20.12;74.66;99483.25;10460955;28;20060;-59
2021/07/06 00:27:19;;;;;;;2.17;1.00;;;;;;;20.07;74.69;99483.84;10460185;28;20047;-59
2021/07/06 00:32:20;;;;;;;2.35;1.10;;;;;;;20.04;74.99;99470.75;10459647;28;20041;-59
2021/07/06 00:37:22;;;;;;;7.82;1.33;;;;;;;19.98;75.21;99454.53;10452248;28;20041;-59
2021/07/06 00:42:24;;;;;;;2.05;1.30;;;;;;;19.89;75.59;99452.03;10460489;28;20040;-60
2021/07/06 00:47:31;;;;;;;2.25;1.60;;;;;;;19.86;75.75;99454.28;10456202;28;20044;-59
2021/07/06 00:52:33;;;;;;;3.08;1.20;;;;;;;19.78;76.07;99456.13;10449448;28;20041;-59
2021/07/06 00:57:35;;;;;;;3.22;1.00;;;;;;;19.76;76.29;99454.66;10457051;28;20428;-59
2021/07/06 01:02:37;;;;;;;3.47;1.40;;;;;;;19.68;76.15;99455.69;10463465;28;20055;-60
2021/07/06 01:07:39;;;;;;;3.33;1.30;;;;;;;19.63;76.25;99447.34;10453623;28;20044;-60
2021/07/06 01:12:45;;;;;;;3.22;1.20;;;;;;;19.63;76.25;99444.63;10463557;28;20102;-60
2021/07/06 01:18:10;;;;;;;3.15;1.15;;;;;;;19.58;76.37;99442.53;10460333;28;20043;-60
2021/07/06 01:23:13;;;;;;;1.95;1.10;;;;;;;19.51;76.45;99427.34;10442730;28;20049;-60
2021/07/06 01:28:14;;;;;;;2.58;1.45;;;;;;;19.40;76.77;99418.81;10458113;28;20052;-59
2021/07/06 01:33:24;;;;;;;1.67;1.20;;;;;;;19.38;77.22;99407.38;10457744;28;20044;-60
2021/07/06 01:38:27;;;;;;;5.07;1.83;;;;;;;19.35;77.12;99410.50;10462085;28;20040;-59
2021/07/06 01:43:28;;;;;;;1.83;1.20;;;;;;;19.26;77.50;99409.00;10449152;28;20044;-59
2021/07/06 01:48:31;;;;;;;3.53;1.20;;;;;;;19.27;77.68;99405.25;10454543;28;20083;-61
2021/07/06 01:53:32;;;;;;;2.13;1.00;;;;;;;19.22;77.42;99408.56;10450522;28;20600;-59
2021/07/06 01:58:34;;;;;;;2.80;1.10;;;;;;;19.15;77.62;99412.25;10455755;28;20049;-59
2021/07/06 02:03:35;;;;;;;2.55;1.15;;;;;;;19.10;77.71;99401.25;10437772;28;20106;-59
2021/07/06 02:08:37;;;;;;;1.92;1.10;;;;;;;19.01;77.90;99390.63;10440603;28;20405;-59
2021/07/06 02:13:38;;;;;;;2.50;1.25;;;;;;;18.98;78.02;99396.41;10463021;23;20044;-62
2021/07/06 02:18:40;;;;;;;3.15;1.40;;;;;;;18.96;78.06;99401.19;10451344;28;20091;-62
2021/07/06 02:23:42;;;;;;;1.42;1.05;;;;;;;18.95;78.02;99410.28;10468052;28;20131;-61
2021/07/06 02:28:44;;;;;;;2.65;1.00;;;;;;;18.92;78.09;99389.13;10475393;28;20067;-61
2021/07/06 02:33:45;;;;;;;1.50;1.10;;;;;;;18.84;78.12;99378.44;10472268;28;20041;-62
2021/07/06 02:38:47;;;;;;;3.47;1.20;;;;;;;18.82;78.28;99369.75;10465859;28;20631;-61
2021/07/06 02:43:48;;;;;;;1.42;1.20;;;;;;;18.80;78.22;99366.41;10478188;28;20044;-60
2021/07/06 02:48:50;;;;;;;2.10;1.25;;;;;;;18.77;78.21;99374.91;10476663;28;20078;-63
2021/07/06 02:53:52;;;;;;;2.90;1.50;;;;;;;18.71;78.57;99373.81;10468897;28;20052;-62
2021/07/06 02:58:54;;;;;;;3.35;1.40;;;;;;;18.67;78.52;99365.28;10454755;28;20056;-62
2021/07/06 03:03:55;;;;;;;4.00;1.65;;;;;;;18.63;78.38;99373.97;10475128;28;20044;-62
2021/07/06 03:08:58;;;;;;;3.83;1.13;;;;;;;18.60;78.58;99383.31;10462526;28;20267;-61
2021/07/06 03:13:59;;;;;;;3.08;1.30;;;;;;;18.55;78.62;99374.97;10463028;28;20410;-62
2021/07/06 03:19:01;;;;;;;1.85;1.25;;;;;;;18.59;78.72;99380.81;10468219;28;20064;-62
2021/07/06 03:24:03;;;;;;;2.67;1.35;;;;;;;18.56;78.81;99390.09;10487484;28;20044;-61
2021/07/06 03:29:04;;;;;;;4.85;1.35;;;;;;;18.51;78.88;99381.75;10487333;28;20486;-63
2021/07/06 03:34:06;;;;;;;1.52;1.40;;;;;;;18.52;78.95;99391.53;10477918;28;20052;-61
2021/07/06 03:39:08;;;;;;;2.67;1.73;;;;;;;18.53;78.65;99404.81;10450549;28;20182;-60
2021/07/06 03:44:09;;;;;;;3.72;1.60;;;;;;;18.47;78.70;99380.50;10454299;28;20098;-62
2021/07/06 03:49:11;;;;;;;4.65;1.63;;;;;;;18.47;78.99;99377.81;10453477;28;20424;-61
2021/07/06 03:54:13;;;;;;;3.10;1.27;;;;;;;18.49;78.93;99370.34;10453106;28;20083;-61
2021/07/06 03:59:14;;;;;;;2.40;1.60;;;;;;;18.49;78.81;99362.28;10434914;28;20044;-61
2021/07/06 04:04:16;;;;;;;2.25;1.42;;;;;;;18.52;78.60;99361.88;10431462;28;20041;-61
2021/07/06 04:09:17;;;;;;;2.42;1.48;;;;;;;18.55;78.37;99356.09;10456707;28;20283;-60
2021/07/06 04:14:19;;;;;;;2.22;1.52;;;;;;;18.58;78.38;99369.16;10456524;28;20053;-59
2021/07/06 04:19:20;;;;;;;2.83;1.50;;;;;;;18.58;78.38;99353.00;10453328;28;20041;-60
2021/07/06 04:24:22;;;;;;;4.15;1.52;;;;;;;18.60;78.18;99347.41;10451501;28;20056;-60
2021/07/06 04:29:24;;;;;;;2.78;1.70;;;;;;;18.65;78.02;99347.66;10458865;28;20075;-60
2021/07/06 04:34:26;;;;;;;2.55;1.55;;;;;;;18.66;77.81;99352.84;10451587;28;20056;-60
2021/07/06 04:39:27;;;;;;;3.00;1.45;;;;;;;18.60;77.87;99345.56;10453642;28;20309;-61
2021/07/06 04:44:29;;;;;;;3.95;1.70;;;;;;;18.78;77.57;99349.59;10440516;28;20174;-61
2021/07/06 04:49:30;;;;;;;2.00;1.80;;;;;;;18.81;77.25;99349.19;10453232;28;20525;-61
2021/07/06 04:54:32;;;;;;;3.17;1.70;;;;;;;18.84;77.30;99338.00;10452520;28;20072;-63
2021/07/06 04:59:34;;;;;;;3.47;1.42;;;;;;;18.93;76.92;99353.03;10461193;28;20045;-63
2021/07/06 05:04:35;;;;;;;2.55;1.40;;;;;;;19.08;76.57;99359.13;10435046;28;20051;-66
2021/07/06 05:09:37;;;;;;;2.20;1.60;;;;;;;19.12;75.63;99361.41;10443500;28;20041;-61
2021/07/06 05:14:39;;;;;;;3.55;1.48;;;;;;;19.20;75.80;99356.69;10440862;28;20056;-61
2021/07/06 05:19:40;;;;;;;3.80;1.55;;;;;;;19.32;75.47;99356.94;10451673;28;20049;-61
2021/07/06 05:24:42;;;;;;;4.80;2.15;;;;;;;19.34;75.72;99349.47;10441466;28;20049;-62
2021/07/06 05:29:44;;;;;;;3.80;1.48;;;;;;;19.51;75.24;99363.41;10460665;28;20053;-62
2021/07/06 05:34:45;;;;;;;2.85;1.58;;;;;;;19.71;74.21;99373.41;10469042;28;20132;-62
2021/07/06 05:39:47;;;;;;;1.77;1.35;;;;;;;19.93;73.81;99379.53;10463798;28;20132;-64
2021/07/06 05:44:48;;;;;;;4.25;2.83;;;;;;;20.04;73.07;99378.91;10446167;28;20049;-62
2021/07/06 05:49:50;;;;;;;21.80;4.18;;;;;;;20.06;72.83;99367.91;10461147;28;20058;-63
2021/07/06 05:54:52;;;;;;;3.10;1.42;;;;;;;20.05;73.39;99369.75;10475289;28;20135;-62
2021/07/06 05:59:53;;;;;;;4.43;2.33;;;;;;;20.00;73.52;99372.25;10456641;28;20519;-62
2021/07/06 06:04:55;;;;;;;3.53;1.95;;;;;;;20.09;73.03;99359.38;10460235;28;20626;-64
2021/07/06 06:09:56;;;;;;;2.30;1.63;;;;;;;20.24;72.72;99351.06;10447811;28;20437;-62
2021/07/06 06:14:58;;;;;;;2.22;1.50;;;;;;;20.33;71.88;99348.97;10449889;28;20049;-64
2021/07/06 06:19:59;;;;;;;2.55;1.67;;;;;;;20.42;72.08;99351.25;10455521;28;20041;-63
2021/07/06 06:25:02;;;;;;;2.17;1.20;;;;;;;20.58;71.36;99341.88;10453112;28;20049;-63
2021/07/06 06:30:05;;;;;;;3.78;1.33;;;;;;;20.62;71.01;99358.50;10451276;28;20049;-63
2021/07/06 06:35:08;;;;;;;5.28;2.47;;;;;;;20.87;70.86;99341.59;10429532;28;20045;-66
2021/07/06 06:40:10;;;;;;;3.60;1.40;;;;;;;20.97;70.48;99340.13;10450943;28;20052;-63
2021/07/06 06:45:13;;;;;;;2.00;1.25;;;;;;;20.95;69.72;99346.81;10459740;28;20045;-64
2021/07/06 06:50:15;;;;;;;3.05;1.48;;;;;;;20.89;70.38;99332.25;10459028;28;20048;-63
2021/07/06 06:55:16;;;;;;;5.72;1.70;;;;;;;20.82;71.14;99343.09;10433782;28;20052;-65
2021/07/06 07:00:18;;;;;;;2.70;1.45;;;;;;;20.75;72.18;99365.81;10429694;28;20547;-63
2021/07/06 07:05:20;;;;;;;3.83;1.35;;;;;;;20.72;73.26;99383.28;10455596;28;20166;-63
2021/07/06 07:10:21;;;;;;;3.97;2.13;;;;;;;20.63;75.64;99379.09;10455308;28;20081;-63
2021/07/06 07:15:23;;;;;;;4.18;1.88;;;;;;;20.69;76.04;99355.81;10458771;28;20389;-64
2021/07/06 07:20:25;;;;;;;3.10;2.53;;;;;;;21.03;77.05;99327.59;10445471;28;20094;-65
2021/07/06 07:25:26;;;;;;;3.03;1.80;;;;;;;21.29;75.93;99312.31;10462810;28;20056;-64
2021/07/06 07:30:28;;;;;;;3.50;2.20;;;;;;;21.46;74.96;99309.94;10454395;28;20056;-64
2021/07/06 07:35:31;;;;;;;2.35;1.77;;;;;;;21.67;74.29;99308.78;10454024;28;20072;-66
2021/07/06 07:40:33;;;;;;;1.85;1.30;;;;;;;22.00;71.04;99316.63;10454258;28;20045;-63
2021/07/06 07:45:36;;;;;;;4.85;1.70;;;;;;;22.30;70.69;99321.38;10461604;28;20052;-66
2021/07/06 07:50:37;;;;;;;2.40;1.58;;;;;;;21.85;71.77;99330.50;10456536;28;20461;-64
2021/07/06 07:55:39;;;;;;;4.45;1.73;;;;;;;21.54;73.56;99353.00;10456762;28;20048;-65
2021/07/06 08:00:40;;;;;;;3.25;1.88;;;;;;;21.22;76.07;99379.16;10461156;28;20048;-66
2021/07/06 08:05:42;;;;;;;3.67;1.85;;;;;;;21.18;77.19;99390.44;10436568;28;20067;-63
2021/07/06 08:10:46;;;;;;;3.95;2.25;;;;;;;21.02;77.51;99401.72;10454988;28;20063;-65
2021/07/06 08:15:49;;;;;;;3.08;2.00;;;;;;;20.70;77.21;99425.91;10475374;22;20044;-61
2021/07/06 08:20:51;;;;;;;5.50;2.53;;;;;;;20.61;79.21;99437.94;10442196;28;20049;-60
2021/07/06 08:25:53;;;;;;;4.80;1.95;;;;;;;20.68;78.24;99435.28;10419282;28;20047;-61
2021/07/06 08:30:54;;;;;;;6.22;2.97;;;;;;;20.59;78.92;99483.28;10415355;28;20048;-61
2021/07/06 08:35:56;;;;;;;7.00;3.22;;;;;;;20.44;81.91;99481.59;10425246;28;20041;-61
2021/07/06 08:40:58;;;;;;;4.70;2.40;;;;;;;20.37;82.24;99507.81;10406014;28;20052;-60
2021/07/06 08:46:01;;;;;;;4.38;2.55;;;;;;;20.14;84.04;99481.97;10421560;28;20057;-61
2021/07/06 08:51:04;;;;;;;4.00;3.15;;;;;;;20.05;84.41;99510.22;10424769;28;20045;-62
2021/07/06 08:56:06;;;;;;;4.85;2.92;;;;;;;19.93;87.23;99512.69;10425531;28;20047;-61
2021/07/06 09:01:08;;;;;;;5.70;2.88;;;;;;;19.85;85.88;99474.25;10426054;28;20059;-62
2021/07/06 09:06:11;;;;;;;4.78;2.90;;;;;;;19.92;87.58;99492.13;10410684;28;20068;-61
2021/07/06 09:11:16;;;;;;;3.73;2.73;;;;;;;19.90;87.76;99512.25;10425359;28;20056;-61
2021/07/06 09:16:27;;;;;;;4.30;3.20;;;;;;;19.95;87.95;99525.97;10424207;28;20061;-64
2021/07/06 09:21:28;;;;;;;5.60;2.95;;;;;;;20.02;87.22;99521.44;10423583;28;20036;-62
2021/07/06 09:26:32;;;;;;;7.13;2.88;;;;;;;20.01;87.09;99536.00;10422402;28;20636;-61
2021/07/06 09:31:37;;;;;;;5.13;2.60;;;;;;;19.85;88.49;99547.16;10423817;28;20525;-62
2021/07/06 09:36:49;;;;;;;4.43;3.05;;;;;;;19.81;88.79;99562.91;10419543;28;20483;-61
2021/07/06 09:41:59;;;;;;;3.78;2.30;;;;;;;19.87;88.81;99572.09;10408906;28;20049;-62
2021/07/06 09:47:01;;;;;;;4.25;2.50;;;;;;;19.95;89.11;99561.09;10424188;28;20049;-61
2021/07/06 09:52:17;;;;;;;2.92;2.47;;;;;;;20.01;88.45;99551.34;10418424;28;20044;-62
2021/07/06 09:57:36;;;;;;;3.45;2.10;;;;;;;20.06;88.20;99538.91;10413612;28;20380;-63
2021/07/06 10:02:39;;;;;;;3.35;1.77;;;;;;;19.98;86.62;99525.56;10411944;28;20162;-61
2021/07/06 10:07:42;;;;;;;5.55;2.05;;;;;;;19.98;88.06;99498.56;10425136;28;20448;-62
2021/07/06 10:12:48;;;;;;;4.57;2.20;;;;;;;20.03;88.37;99460.97;10407582;28;20037;-62
2021/07/06 10:17:52;;;;;;;4.50;2.42;;;;;;;20.32;87.66;99461.66;10425259;28;20080;-62
2021/07/06 10:23:01;;;;;;;3.53;1.70;;;;;;;20.27;86.74;99480.34;10425787;28;20405;-61
2021/07/06 10:28:06;;;;;;;3.22;1.80;;;;;;;20.17;88.00;99501.53;10414010;28;20037;-62
2021/07/06 10:33:36;;;;;;;3.13;1.50;;;;;;;20.05;88.04;99553.44;10417490;28;20076;-62
2021/07/06 10:38:41;;;;;;;2.17;1.27;;;;;;;20.03;87.26;99566.34;10426747;28;20053;-61
2021/07/06 10:43:43;;;;;;;2.30;1.63;;;;;;;20.14;87.01;99546.81;10426339;28;20524;-61
2021/07/06 10:49:06;;;;;;;2.10;1.65;;;;;;;20.40;86.42;99534.44;10427565;28;20512;-60
2021/07/06 10:54:11;;;;;;;3.22;1.40;;;;;;;20.80;85.16;99550.72;10420155;28;20402;-60
2021/07/06 10:59:20;;;;;;;1.73;0.65;;;;;;;21.18;81.11;99536.56;10417239;28;20485;-61
2021/07/06 11:04:36;;;;;;;1.27;0.80;;;;;;;21.88;78.05;99519.69;10421904;28;20052;-61
2021/07/06 11:09:38;;;;;;;1.77;1.15;;;;;;;22.06;76.20;99510.84;10427835;28;20421;-61
2021/07/06 11:14:46;;;;;;;1.13;0.40;;;;;;;22.48;74.78;99537.53;10425253;28;20053;-61
2021/07/06 11:19:57;;;;;;;0.88;0.50;;;;;;;22.89;71.13;99529.91;10416089;28;20050;-61
2021/07/06 11:25:18;;;;;;;1.20;0.60;;;;;;;22.64;73.43;99535.31;10421036;28;20037;-61
2021/07/06 11:30:25;;;;;;;2.60;0.93;;;;;;;22.18;73.63;99529.97;10418968;28;20482;-60
2021/07/06 11:35:30;;;;;;;1.85;0.70;;;;;;;21.92;75.63;99557.19;10416882;28;20052;-61
2021/07/06 11:40:33;;;;;;;0.93;0.50;;;;;;;21.67;75.36;99547.09;10430803;28;20092;-64
2021/07/06 11:45:36;;;;;;;;;;;;;;;21.34;76.65;99529.03;10423141;28;20054;-61
2021/07/06 11:50:42;;;;;;;3.42;0.63;;;;;;;21.27;77.45;99539.03;10423680;28;19929;-62
2021/07/06 11:55:43;;;;;;;1.73;1.02;;;;;;;20.91;79.03;99551.97;10428477;28;20068;-60
2021/07/06 12:00:45;;;;;;;1.58;0.65;;;;;;;21.28;77.85;99546.94;10425010;28;20064;-63
2021/07/06 12:05:49;;;;;;;1.42;0.88;;;;;;;21.22;79.00;99546.97;10430921;28;20108;-61
2021/07/06 12:10:59;;;;;;;2.03;0.80;;;;;;;21.27;79.16;99577.75;10431154;28;20041;-62
2021/07/06 12:16:03;;;;;;;1.77;0.73;;;;;;;20.77;81.23;99616.03;10429574;28;20055;-62
2021/07/06 12:21:07;;;;;;;2.22;0.77;;;;;;;20.67;81.54;99623.69;10429400;28;20057;-62
2021/07/06 12:26:08;;;;;;;2.90;0.85;;;;;;;20.77;81.71;99620.63;10421714;28;20045;-61
2021/07/06 12:31:16;;;;;;;1.05;0.70;;;;;;;20.74;80.97;99596.69;10413032;28;20042;-62
2021/07/06 12:36:27;;;;;;;2.38;0.80;;;;;;;20.60;81.68;99620.97;10413262;28;20057;-61
2021/07/06 12:41:30;;;;;;;2.40;1.20;;;;;;;20.51;83.34;99615.94;10427176;28;20051;-62
2021/07/06 12:46:32;;;;;;;2.05;0.90;;;;;;;20.60;84.66;99615.56;10404860;28;20048;-62
2021/07/06 12:51:34;;;;;;;2.50;0.93;;;;;;;20.53;83.70;99614.69;10418964;28;20041;-62
2021/07/06 12:56:35;;;;;;;1.92;1.00;;;;;;;20.43;84.54;99623.22;10421906;28;20045;-61
2021/07/06 13:01:37;;;;;;;2.50;0.98;;;;;;;20.42;84.28;99624.25;10423446;28;20057;-61
2021/07/06 13:06:39;;;;;;;1.98;0.73;;;;;;;20.36;84.23;99625.06;10417810;28;20048;-61
2021/07/06 13:11:45;;;;;;;1.55;0.80;;;;;;;20.38;83.77;99660.81;10419339;28;20476;-61
2021/07/06 13:16:47;;;;;;;2.25;0.65;;;;;;;20.34;83.70;99664.94;10417489;28;20406;-62
2021/07/06 13:21:50;;;;;;;1.13;0.50;;;;;;;20.35;84.46;99658.53;10426749;28;20060;-61
2021/07/06 13:26:52;;;;;;;1.65;0.60;;;;;;;20.24;84.32;99667.22;10424759;28;20052;-61
2021/07/06 13:31:54;;;;;;;2.38;0.80;;;;;;;20.34;83.94;99654.13;10420175;28;20049;-61
2021/07/06 13:36:55;;;;;;;1.50;0.75;;;;;;;20.36;83.63;99657.50;10424534;28;20438;-61
2021/07/06 13:41:57;;;;;;;2.58;1.15;;;;;;;20.28;82.66;99657.66;10417939;28;20068;-62
2021/07/06 13:46:59;;;;;;;2.05;0.70;;;;;;;20.42;84.03;99662.09;10419910;28;20049;-61
2021/07/06 13:52:01;;;;;;;2.42;0.63;;;;;;;20.40;82.90;99663.31;10414636;28;20107;-61
2021/07/06 13:57:07;;;;;;;1.48;1.08;;;;;;;20.43;83.22;99662.91;10408027;28;20574;-62
2021/07/06 14:02:12;;;;;;;2.45;0.90;;;;;;;20.44;83.14;99670.81;10418055;28;20067;-60
2021/07/06 14:07:15;;;;;;;2.28;1.00;;;;;;;20.26;84.26;99678.66;10421143;28;20419;-62
2021/07/06 14:12:17;;;;;;;3.35;1.40;;;;;;;20.40;84.08;99669.56;10415201;28;20402;-62
2021/07/06 14:17:19;;;;;;;2.28;1.08;;;;;;;20.34;83.95;99675.75;10447375;22;20054;-64
2021/07/06 14:22:20;;;;;;;1.27;1.00;;;;;;;20.61;82.75;99663.19;10401311;28;20049;-63
2021/07/06 14:27:22;;;;;;;2.15;0.90;;;;;;;20.68;81.88;99668.63;10412549;28;20057;-63
2021/07/06 14:32:23;;;;;;;1.42;0.90;;;;;;;20.53;81.84;99657.13;10430887;28;20048;-62
2021/07/06 14:37:25;;;;;;;1.60;0.80;;;;;;;20.61;81.80;99671.31;10428231;28;20048;-62
2021/07/06 14:42:27;;;;;;;2.60;1.45;;;;;;;20.68;81.30;99667.81;10435122;28;20041;-63
2021/07/06 14:47:28;;;;;;;2.85;1.10;;;;;;;20.81;80.35;99676.78;10421794;28;20052;-61
2021/07/06 14:52:31;;;;;;;1.83;0.98;;;;;;;20.80;80.08;99680.53;10418406;28;20056;-62
2021/07/06 14:57:33;;;;;;;2.17;1.00;;;;;;;20.93;80.00;99673.50;10420477;28;20052;-66
2021/07/06 15:02:54;;;;;;;1.45;0.80;;;;;;;20.87;80.09;99698.63;10420619;28;20084;-63
2021/07/06 15:07:58;;;;;;;1.55;0.63;;;;;;;20.79;79.98;99676.16;10422666;28;20063;-65
2021/07/06 15:13:01;;;;;;;3.92;1.10;;;;;;;20.64;80.41;99680.88;10410575;28;20053;-63
2021/07/06 15:18:03;;;;;;;;;;;;;;;20.58;80.01;99695.19;10413991;28;20334;-63
2021/07/06 15:23:04;;;;;;;1.52;1.10;;;;;;;20.73;80.16;99671.59;10414319;28;19944;-64
2021/07/06 15:28:06;;;;;;;2.88;1.10;;;;;;;20.59;79.69;99688.75;10424700;28;20060;-62
2021/07/06 15:33:11;;;;;;;1.05;0.70;;;;;;;20.44;80.51;99687.03;10416188;28;20050;-66
2021/07/06 15:38:35;;;;;;;1.40;1.05;;;;;;;20.42;80.60;99683.72;10429020;28;20698;-64
2021/07/06 15:43:37;;;;;;;1.75;1.10;;;;;;;20.60;80.00;99658.81;10435031;28;20069;-64
2021/07/06 15:48:38;;;;;;;1.17;0.82;;;;;;;20.78;78.98;99650.16;10443378;28;20699;-63
2021/07/06 15:53:40;;;;;;;1.02;0.57;;;;;;;21.00;75.21;99658.94;10435590;28;20089;-65
2021/07/06 15:58:42;;;;;;;1.58;0.70;;;;;;;21.14;72.03;99654.38;10440573;28;20673;-63
2021/07/06 16:03:43;;;;;;;0.60;0.40;;;;;;;21.09;70.21;99674.97;10436826;28;20158;-64
2021/07/06 16:08:45;;;;;;;1.58;0.50;;;;;;;20.94;70.16;99676.00;10414089;28;20049;-66
2021/07/06 16:13:48;;;;;;;2.25;0.45;;;;;;;20.77;69.63;99670.13;10426154;28;20053;-63
2021/07/06 16:18:50;;;;;;;2.73;0.50;;;;;;;20.69;69.04;99673.03;10413674;28;20048;-64
2021/07/06 16:23:51;;;;;;;1.20;0.43;;;;;;;20.63;67.96;99663.00;10418189;28;20106;-65
2021/07/06 16:28:57;;;;;;;2.25;0.45;;;;;;;20.49;67.57;99684.56;10409172;28;20052;-64
2021/07/06 16:33:58;;;;;;;1.08;0.50;;;;;;;20.51;68.43;99684.38;10424436;28;20059;-63
2021/07/06 16:39:01;;;;;;;1.55;0.50;;;;;;;20.40;67.54;99699.31;10415844;28;20425;-62
2021/07/06 16:44:03;;;;;;;1.27;0.45;;;;;;;20.36;67.87;99722.34;10419197;28;20057;-62
2021/07/06 16:49:05;;;;;;;2.45;0.30;;;;;;;20.32;68.34;99715.69;10412742;28;20041;-61
2021/07/06 17:58:23;;;;;;;1.90;0.57;;;;;;;20.00;71.15;99718.00;10417938;28;20048;-64
2021/07/06 18:03:25;;;;;;;1.17;0.60;;;;;;;19.97;69.98;99726.50;10422730;28;20353;-61
2021/07/06 18:08:27;;;;;;;1.40;0.60;;;;;;;19.92;68.96;99720.84;10420317;28;20096;-63
2021/07/06 18:13:29;;;;;;;3.15;0.73;;;;;;;19.93;68.12;99712.53;10420346;28;20048;-61
2021/07/06 18:18:31;;;;;;;0.93;0.30;;;;;;;19.93;66.54;99719.81;10421197;28;20131;-63
2021/07/06 18:23:32;;;;;;;1.13;0.60;;;;;;;19.98;68.45;99730.84;10405080;28;20048;-62
2021/07/06 18:28:34;;;;;;;1.70;1.13;;;;;;;19.95;70.31;99753.72;10399886;28;20055;-61
2021/07/06 18:33:36;;;;;;;1.10;0.70;;;;;;;19.83;68.65;99755.28;10404646;28;20064;-63
2021/07/06 18:38:39;;;;;;;3.28;0.82;;;;;;;19.79;67.97;99781.00;10399541;28;20045;-60
2021/07/06 18:43:41;;;;;;;5.97;0.93;;;;;;;19.71;67.45;99795.47;10422789;28;20049;-61
2021/07/06 18:48:42;;;;;;;2.67;1.00;;;;;;;19.69;68.17;99805.59;10422517;28;20049;-63
2021/07/06 18:53:44;;;;;;;3.50;0.50;;;;;;;19.67;68.02;99807.66;10422382;28;20056;-62
2021/07/06 18:58:46;;;;;;;2.42;0.70;;;;;;;19.63;67.63;99813.66;10425441;28;20090;-65
2021/07/06 19:03:48;;;;;;;2.35;0.80;;;;;;;19.58;67.25;99822.31;10421867;28;20053;-66
2021/07/06 19:08:50;;;;;;;1.30;0.40;;;;;;;19.54;67.28;99831.84;10428829;28;20557;-65
2021/07/06 19:13:53;;;;;;;3.25;0.70;;;;;;;19.49;67.30;99821.63;10422532;28;20111;-64
2021/07/06 19:18:55;;;;;;;2.65;0.60;;;;;;;19.50;67.46;99814.34;10428117;28;20072;-63
2021/07/06 19:34:29;;;;;;;1.75;1.13;;;;;;;19.42;67.76;99821.53;10428699;28;20041;-64
2021/07/06 19:39:30;;;;;;;3.23;0.90;;;;;;;19.58;68.29;99843.94;10410308;28;20056;-64
2021/07/06 19:44:32;;;;;;;2.85;0.95;;;;;;;19.61;69.37;99854.34;10413510;28;20415;-64
2021/07/06 19:49:36;;;;;;;1.45;0.60;;;;;;;19.59;70.10;99859.06;10443300;28;20045;-62
2021/07/06 19:54:38;;;;;;;3.10;1.20;;;;;;;19.58;71.08;99871.75;10424903;28;20067;-63
2021/07/06 19:59:40;;;;;;;3.92;1.70;;;;;;;19.57;72.16;99861.97;10421119;28;20060;-62
2021/07/06 20:04:46;;;;;;;2.83;1.20;;;;;;;19.57;72.97;99882.75;10437926;28;20047;-62
2021/07/06 20:09:50;;;;;;;1.98;0.93;;;;;;;19.48;73.53;99883.88;10439757;28;20049;-63
2021/07/06 20:14:52;;;;;;;1.83;1.33;;;;;;;19.34;73.99;99902.63;10419123;28;20053;-64
2021/07/06 20:19:53;;;;;;;2.53;0.90;;;;;;;19.34;73.52;99891.81;10423592;23;20056;-62
2021/07/06 20:24:55;;;;;;;2.45;1.13;;;;;;;19.35;74.24;99892.66;10417904;28;20051;-61
2021/07/06 20:29:57;;;;;;;3.60;1.10;;;;;;;19.32;74.55;99891.19;10425541;28;20509;-61
2021/07/06 20:34:58;;;;;;;2.33;1.00;;;;;;;19.33;75.54;99883.94;10418386;28;20044;-61
2021/07/06 20:40:00;;;;;;;4.47;1.33;;;;;;;19.31;76.31;99897.59;10431748;28;20045;-61
2021/07/06 20:45:03;;;;;;;2.70;0.77;;;;;;;19.29;76.16;99902.38;10421171;28;20118;-61
2021/07/06 20:50:07;;;;;;;4.07;1.70;;;;;;;19.26;75.89;99891.97;10422025;28;20417;-61
2021/07/06 20:55:09;;;;;;;3.28;1.25;;;;;;;19.23;75.90;99900.41;10427147;28;20422;-61
2021/07/06 21:00:12;;;;;;;4.60;1.48;;;;;;;19.22;75.20;99898.75;10414606;28;20553;-61
2021/07/06 21:05:14;;;;;;;3.88;1.52;;;;;;;19.16;75.00;99910.28;10422028;28;20044;-62
2021/07/06 21:10:17;;;;;;;3.83;1.20;;;;;;;19.17;75.41;99909.25;10426569;28;20049;-61
2021/07/06 21:15:19;;;;;;;3.23;1.10;;;;;;;19.15;74.65;99895.13;10425524;28;20049;-62
2021/07/06 21:20:20;;;;;;;2.22;0.80;;;;;;;19.11;74.57;99896.50;10425944;28;20037;-61
2021/07/06 21:25:22;;;;;;;1.48;0.93;;;;;;;19.11;73.72;99891.13;10424835;28;20052;-61
2021/07/06 21:30:23;;;;;;;3.55;1.05;;;;;;;19.10;74.35;99886.78;10417632;28;20076;-64
2021/07/06 21:35:25;;;;;;;5.18;1.23;;;;;;;19.09;73.99;99915.59;10414963;28;20052;-60
2021/07/06 21:40:27;;;;;;;3.13;1.25;;;;;;;19.08;73.25;99889.66;10417109;28;20052;-61
2021/07/06 21:45:28;;;;;;;2.40;1.23;;;;;;;19.04;73.05;99908.06;10417319;28;20049;-62
2021/07/06 21:50:30;;;;;;;3.10;0.88;;;;;;;19.00;73.34;99900.53;10417064;28;20045;-62
2021/07/06 21:55:31;;;;;;;2.60;0.70;;;;;;;18.89;73.44;99909.94;10423697;28;20045;-60
2021/07/06 22:00:33;;;;;;;4.57;0.90;;;;;;;18.87;73.33;99895.78;10423534;28;20061;-59
2021/07/06 22:05:35;;;;;;;4.97;1.40;;;;;;;18.90;74.20;99911.63;10417661;28;20533;-60
2021/07/06 22:10:36;;;;;;;2.38;0.90;;;;;;;18.90;72.92;99907.06;10414996;28;20051;-61
2021/07/06 22:15:38;;;;;;;3.08;1.13;;;;;;;18.92;73.26;99931.13;10424073;28;20409;-60
2021/07/06 22:20:40;;;;;;;4.60;0.90;;;;;;;18.94;72.79;99915.59;10416332;28;20060;-61
2021/07/06 22:25:46;;;;;;;3.08;1.15;;;;;;;18.90;72.50;99930.50;10419345;28;20087;-61
2021/07/06 22:30:48;;;;;;;4.63;1.15;;;;;;;18.73;72.90;99925.25;10419561;28;20405;-61
2021/07/06 22:35:49;;;;;;;2.13;0.70;;;;;;;18.79;72.75;99931.75;10424985;28;20056;-61
2021/07/06 22:40:51;;;;;;;2.05;0.77;;;;;;;18.76;71.53;99939.38;10427258;28;20665;-60
2021/07/06 22:45:53;;;;;;;2.03;0.65;;;;;;;18.68;71.16;99953.78;10416411;28;20049;-62
2021/07/06 22:50:55;;;;;;;2.45;0.50;;;;;;;18.68;71.52;99956.47;10423810;28;20502;-60
2021/07/06 22:55:56;;;;;;;3.65;0.60;;;;;;;18.55;70.73;99957.94;10431044;28;20301;-61
2021/07/06 23:00:59;;;;;;;2.17;0.60;;;;;;;18.55;71.10;99952.56;10429775;28;20413;-61
2021/07/06 23:06:01;;;;;;;2.80;0.60;;;;;;;18.54;70.70;99964.34;10425880;28;20453;-60
2021/07/06 23:11:03;;;;;;;2.25;0.60;;;;;;;18.53;71.39;99975.31;10430963;28;20287;-60
2021/07/06 23:16:05;;;;;;;3.40;0.82;;;;;;;18.55;71.07;99979.50;10423157;28;20501;-60
2021/07/06 23:21:06;;;;;;;2.10;1.17;;;;;;;18.54;71.12;99971.59;10430696;28;20048;-61
2021/07/06 23:26:08;;;;;;;2.13;0.40;;;;;;;18.37;71.24;99974.44;10429878;28;20049;-61
2021/07/06 23:31:12;;;;;;;3.30;0.80;;;;;;;18.32;71.48;99986.78;10414955;28;20052;-60
2021/07/06 23:36:14;;;;;;;;;;;;;;;18.22;71.53;100005.84;10430195;28;20494;-60
2021/07/06 23:41:15;;;;;;;2.75;0.55;;;;;;;18.27;71.97;99989.16;10429931;28;19920;-60
2021/07/06 23:46:17;;;;;;;1.95;1.42;;;;;;;18.32;71.22;100003.75;10428278;28;20506;-60
2021/07/06 23:51:22;;;;;;;2.47;0.47;;;;;;;18.29;71.07;100011.38;10435645;28;20745;-60
2021/07/06 23:56:23;;;;;;;1.40;0.57;;;;;;;18.27;70.85;99991.84;10419560;28;20059;-61
